.
WxDataArchive / Data Records for 2012-06-06
2012-06-05 June 2012 2012-06-07

Data Records for Wednesday, 06 June 2012

Time	Temp	Chill	HIndex	Humid	Dewpt	 Wind 	HiWind	WindDir	Rain 	Barom 
-----	----	-----	------	-----	-----	------	------	-------	-----	----- 
00:00	52.9	52.9	52.9	79	46.6	0	0	---	0.00	30.002 
00:05	52.8	52.8	52.8	79	46.5	0	0	---	0.00	30.002 
00:10	52.5	52.5	52.5	79	46.2	0	0	---	0.00	30.002 
00:15	52.3	52.3	52.3	80	46.3	0	0	---	0.00	30.003 
00:20	52.2	52.2	52.2	80	46.2	0	0	---	0.00	30.003 
00:25	51.9	51.9	51.9	81	46.3	0	0	---	0.00	30.003 
00:30	51.7	51.7	51.7	81	46.1	0	0	---	0.00	30.004 
00:35	51.4	51.4	51.4	82	46.1	0	0	---	0.00	30.004 
00:40	51.3	51.3	51.3	82	46.0	0	0	---	0.00	30.004 
00:45	51.1	51.1	51.1	83	46.1	0	0	---	0.00	30.007 
00:50	51.0	51.0	51.0	83	46.0	0	0	---	0.00	30.007 
00:55	51.0	51.0	51.0	84	46.3	0	0	---	0.00	30.007 
01:00	50.8	50.8	50.8	84	46.1	0	0	---	0.00	30.009 
01:05	50.8	50.8	50.8	84	46.1	0	0	---	0.00	30.009 
01:10	50.7	50.7	50.7	84	46.0	0	0	---	0.00	30.009 
01:15	50.5	50.5	50.5	84	45.8	0	0	---	0.00	30.007 
01:20	50.5	50.5	50.5	85	46.2	0	0	---	0.00	30.007 
01:25	50.4	50.4	50.4	85	46.1	0	0	---	0.00	30.007 
01:30	50.2	50.2	50.2	85	45.9	0	0	---	0.00	30.008 
01:35	50.1	50.1	50.1	85	45.8	0	0	---	0.00	30.008 
01:40	49.9	49.9	49.9	85	45.6	0	0	---	0.00	30.008 
01:45	49.8	49.8	49.8	85	45.5	0	0	---	0.00	30.004 
01:50	49.6	49.6	49.6	85	45.3	0	0	---	0.00	30.004 
01:55	49.5	49.5	49.5	85	45.2	0	0	---	0.00	30.004 
02:00	49.4	49.4	49.4	86	45.4	0	0	---	0.00	30.001 
02:05	49.2	49.2	49.2	86	45.2	0	0	---	0.00	30.001 
02:10	48.9	48.9	48.9	86	44.9	0	0	---	0.00	30.001 
02:15	48.8	48.8	48.8	86	44.8	0	0	---	0.00	30.000 
02:20	48.8	48.8	48.8	86	44.8	0	0	---	0.00	30.000 
02:25	48.6	48.6	48.6	87	44.9	0	0	---	0.00	30.000 
02:30	48.6	48.6	48.6	87	44.9	0	0	---	0.00	30.008 
02:35	48.6	48.6	48.6	88	45.2	0	0	---	0.00	30.008 
02:40	48.6	48.6	48.6	88	45.2	0	0	---	0.00	30.008 
02:45	48.6	48.6	48.6	88	45.2	0	0	---	0.00	30.006 
02:50	48.6	48.6	48.6	88	45.2	0	0	---	0.00	30.006 
02:55	48.5	48.5	48.5	88	45.1	0	0	---	0.00	30.006 
03:00	48.3	48.3	48.3	88	44.9	0	0	---	0.00	30.006 
03:05	48.2	48.2	48.2	88	44.8	0	0	---	0.00	30.006 
03:10	48.2	48.2	48.2	89	45.1	0	0	---	0.00	30.006 
03:15	48.0	48.0	48.0	89	44.9	0	0	---	0.00	30.006 
03:20	48.0	48.0	48.0	89	44.9	0	0	---	0.00	30.006 
03:25	48.0	48.0	48.0	89	44.9	0	0	---	0.00	30.006 
03:30	48.2	48.2	48.2	90	45.4	0	0	---	0.00	30.005 
03:35	48.5	48.5	48.5	90	45.7	0	0	---	0.00	30.005 
03:40	48.6	48.6	48.6	90	45.8	0	0	---	0.00	30.005 
03:45	48.5	48.5	48.5	89	45.4	0	0	---	0.00	29.995 
03:50	48.5	48.5	48.5	89	45.4	0	0	---	0.00	29.995 
03:55	48.5	48.5	48.5	89	45.4	0	0	---	0.00	29.995 
04:00	48.3	48.3	48.3	89	45.2	0	0	---	0.00	29.998 
04:05	48.2	48.2	48.2	89	45.1	0	0	---	0.00	29.998 
04:10	48.0	48.0	48.0	89	44.9	0	0	---	0.00	29.998 
04:15	48.0	48.0	48.0	90	45.2	0	0	---	0.00	29.998 
04:20	48.0	48.0	48.0	89	44.9	0	0	---	0.00	29.998 
04:25	48.0	48.0	48.0	89	44.9	0	0	---	0.00	29.998 
04:30	47.9	47.9	47.9	90	45.1	0	0	---	0.00	30.001 
04:35	47.9	47.9	47.9	90	45.1	0	0	---	0.00	30.001 
04:40	47.7	47.7	47.7	90	44.9	0	0	---	0.00	30.001 
04:45	47.7	47.7	47.7	90	44.9	0	0	---	0.00	30.007 
04:50	47.7	47.7	47.7	90	44.9	0	0	---	0.00	30.007 
04:55	47.7	47.7	47.7	90	44.9	0	0	---	0.00	30.007 
05:00	47.6	47.6	47.6	90	44.8	0	0	---	0.00	30.008 
05:05	47.4	47.4	47.4	90	44.6	0	0	---	0.00	30.008 
05:10	47.3	47.3	47.3	90	44.5	0	0	---	0.00	30.008 
05:15	47.3	47.3	47.3	90	44.5	0	0	---	0.00	30.015 
05:20	47.3	47.3	47.3	90	44.5	0	0	---	0.00	30.015 
05:25	47.1	47.1	47.1	90	44.3	0	0	---	0.00	30.015 
05:30	47.1	47.1	47.1	90	44.3	0	0	---	0.00	30.015 
05:35	47.0	47.0	47.0	90	44.2	0	0	---	0.00	30.015 
05:40	46.8	46.8	46.8	90	44.0	0	0	---	0.00	30.015 
05:45	46.8	46.8	46.8	91	44.3	0	0	---	0.00	30.024 
05:50	46.7	46.7	46.7	90	43.9	0	0	---	0.00	30.024 
05:55	46.5	46.5	46.5	91	44.0	0	0	---	0.00	30.024 
06:00	46.5	46.5	46.5	91	44.0	0	0	---	0.00	30.024 
06:05	46.4	46.4	46.4	91	43.9	0	0	---	0.00	30.024 
06:10	46.5	46.5	46.5	91	44.0	0	0	---	0.00	30.024 
06:15	46.7	46.7	46.7	91	44.2	0	0	---	0.00	30.025 
06:20	46.7	46.7	46.7	91	44.2	0	0	---	0.00	30.025 
06:25	46.8	46.8	46.8	91	44.3	0	0	---	0.00	30.025 
06:30	46.8	46.8	46.8	91	44.3	0	0	---	0.00	30.027 
06:35	46.8	46.8	46.8	92	44.6	0	0	---	0.00	30.027 
06:40	47.3	47.3	47.3	92	45.1	0	0	---	0.00	30.027 
06:45	47.6	47.6	47.6	92	45.4	0	0	---	0.00	30.034 
06:50	47.7	47.7	47.7	92	45.5	0	0	---	0.00	30.034 
06:55	48.0	48.0	48.0	92	45.8	0	0	---	0.00	30.034 
07:00	48.2	48.2	48.2	92	46.0	0	0	---	0.00	30.037 
07:05	48.3	48.3	48.3	92	46.1	0	0	---	0.00	30.037 
07:10	48.6	48.6	48.6	92	46.4	0	0	---	0.00	30.037 
07:15	49.2	49.2	49.2	92	47.0	0	0	---	0.00	30.038 
07:20	49.6	49.6	49.6	92	47.4	0	1	68	0.00	30.038 
07:25	50.2	50.2	50.2	92	48.0	0	1	68	0.00	30.038 
07:30	50.8	50.8	50.8	91	48.3	0	0	---	0.00	30.038 
07:35	51.4	51.4	51.4	90	48.6	0	0	---	0.00	30.038 
07:40	52.0	52.0	52.0	89	48.9	0	0	---	0.00	30.038 
07:45	52.8	52.8	52.8	88	49.3	0	1	68	0.00	30.038 
07:50	53.3	53.3	53.3	86	49.2	0	0	---	0.00	30.038 
07:55	54.2	54.2	54.2	84	49.5	0	1	68	0.00	30.038 
08:00	55.0	55.0	55.0	82	49.6	0	1	68	0.00	30.041 
08:05	55.9	55.9	55.9	79	49.5	0	1	68	0.00	30.041 
08:10	56.6	56.6	56.6	77	49.5	0	1	68	0.00	30.041 
08:15	57.5	57.5	57.5	74	49.3	0	3	68	0.00	30.040 
08:20	58.3	58.3	58.3	72	49.3	0	2	68	0.00	30.040 
08:25	59.6	59.6	59.6	70	49.8	0	1	68	0.00	30.040 
08:30	60.4	60.4	60.4	68	49.8	0	2	68	0.00	30.046 
08:35	60.9	60.9	60.9	68	50.3	0	2	68	0.00	30.046 
08:40	61.2	61.2	61.2	65	49.3	0	2	68	0.00	30.046 
08:45	61.8	61.8	61.8	63	49.1	1	3	68	0.00	30.046 
08:50	62.6	62.6	62.6	62	49.4	1	4	112	0.00	30.046 
08:55	63.4	63.4	63.4	61	49.7	1	4	112	0.00	30.046 
09:00	63.7	63.7	63.7	59	49.1	0	3	112	0.00	30.046 
09:05	64.2	64.2	64.2	58	49.1	0	3	225	0.00	30.046 
09:10	64.8	64.8	64.8	57	49.2	0	2	112	0.00	30.046 
09:15	65.3	65.3	65.3	56	49.2	0	3	112	0.00	30.058 
09:20	66.0	66.0	66.0	55	49.4	1	4	112	0.00	30.058 
09:25	66.6	66.6	66.6	54	49.4	0	2	112	0.00	30.058 
09:30	66.6	66.6	66.6	52	48.4	1	5	112	0.00	30.057 
09:35	67.1	67.1	67.1	51	48.4	1	4	90	0.00	30.057 
09:40	67.3	67.3	67.3	52	49.1	1	4	90	0.00	30.057 
09:45	67.3	67.3	67.3	51	48.5	1	3	112	0.00	30.055 
09:50	67.6	67.6	67.6	50	48.3	1	4	112	0.00	30.055 
09:55	67.8	67.8	67.8	49	47.9	1	4	112	0.00	30.055 
10:00	68.1	68.1	68.1	49	48.2	0	2	112	0.00	30.051 
10:05	68.8	68.8	68.8	46	47.2	1	6	112	0.00	30.051 
10:10	68.6	68.6	68.6	46	47.0	2	6	90	0.00	30.051 
10:15	68.8	68.8	68.8	46	47.2	2	4	90	0.00	30.054 
10:20	68.8	68.8	68.8	45	46.6	1	5	112	0.00	30.054 
10:25	68.9	68.9	68.9	45	46.7	1	4	68	0.00	30.054 
10:30	68.9	68.9	68.9	47	47.8	1	3	90	0.00	30.053 
10:35	68.8	68.8	68.8	42	44.8	3	9	90	0.00	30.053 
10:40	69.1	69.1	69.1	43	45.7	0	3	112	0.00	30.053 
10:45	69.8	69.8	69.8	42	45.7	2	4	112	0.00	30.052 
10:50	69.9	69.9	69.9	44	47.0	1	6	22	0.00	30.052 
10:55	70.4	70.4	70.4	42	46.2	1	6	22	0.00	30.052 
11:00	70.8	70.8	70.8	40	45.3	3	5	90	0.00	30.051 
11:05	70.9	70.9	70.9	40	45.4	1	6	90	0.00	30.051 
11:10	70.9	70.9	70.9	39	44.7	1	4	90	0.00	30.051 
11:15	70.3	70.3	70.3	40	44.8	0	2	270	0.00	30.056 
11:20	70.8	70.8	70.8	41	45.9	0	2	270	0.00	30.056 
11:25	71.8	71.8	71.8	37	44.1	2	6	90	0.00	30.056 
11:30	71.8	71.8	71.8	40	46.2	2	6	90	0.00	30.049 
11:35	71.1	71.1	71.1	39	44.9	1	4	45	0.00	30.049 
11:40	70.1	70.1	70.1	40	44.6	1	2	292	0.00	30.049 
11:45	70.4	70.4	70.4	39	44.2	2	7	90	0.00	30.049 
11:50	71.3	71.3	71.3	37	43.7	2	9	90	0.00	30.049 
11:55	71.8	71.8	71.8	35	42.7	3	6	90	0.00	30.049 
12:00	71.8	71.8	71.8	36	43.4	1	4	90	0.00	30.048 
12:05	72.1	72.1	72.1	35	42.9	1	3	90	0.00	30.048 
12:10	72.3	72.3	72.3	36	43.8	1	3	90	0.00	30.048 
12:15	72.7	72.7	72.7	37	44.9	1	4	90	0.00	30.048 
12:20	73.2	73.2	73.2	39	46.7	1	5	225	0.00	30.048 
12:25	73.7	73.7	73.7	34	43.6	2	6	112	0.00	30.048 
12:30	73.5	73.5	73.5	35	44.2	1	5	90	0.00	30.047 
12:35	72.3	72.3	72.3	36	43.8	1	5	270	0.00	30.047 
12:40	72.5	72.5	72.5	36	44.0	1	3	112	0.00	30.047 
12:45	73.2	73.2	73.2	33	42.4	3	13	90	0.00	30.047 
12:50	73.3	73.3	73.3	38	46.1	1	4	90	0.00	30.047 
12:55	73.9	73.9	73.9	35	44.5	1	4	90	0.00	30.047 
13:00	73.9	73.9	73.9	30	40.5	4	10	90	0.00	30.046 
13:05	73.9	73.9	73.9	32	42.2	2	6	90	0.00	30.046 
13:10	73.5	73.5	73.5	32	41.8	1	5	90	0.00	30.046 
13:15	73.3	73.3	73.3	35	44.0	1	5	90	0.00	30.046 
13:20	73.2	73.2	73.2	34	43.1	0	2	112	0.00	30.046 
13:25	73.9	73.9	73.9	35	44.5	1	5	112	0.00	30.046 
13:30	74.6	74.6	74.6	29	40.2	3	7	90	0.00	30.041 
13:35	74.6	74.6	74.6	31	42.0	2	7	90	0.00	30.041 
13:40	74.9	74.9	74.9	28	39.6	2	6	90	0.00	30.041 
13:45	75.1	75.1	77.2	33	44.0	1	5	90	0.00	30.036 
13:50	75.3	75.3	76.9	28	39.9	2	7	68	0.00	30.036 
13:55	75.3	75.3	77.1	31	42.6	2	7	90	0.00	30.036 
14:00	75.8	75.8	77.2	30	42.1	1	2	90	0.00	30.035 
14:05	76.0	76.0	77.3	30	42.3	3	7	90	0.00	30.035 
14:10	76.0	76.0	77.3	30	42.3	2	4	90	0.00	30.035 
14:15	75.8	75.8	77.1	28	40.4	1	3	248	0.00	30.033 
14:20	76.0	76.0	77.1	28	40.5	2	7	90	0.00	30.033 
14:25	76.3	76.3	77.2	27	39.8	2	6	90	0.00	30.033 
14:30	76.0	76.0	77.1	28	40.5	1	3	90	0.00	30.029 
14:35	75.8	75.8	77.2	30	42.1	1	7	90	0.00	30.029 
14:40	75.6	75.6	77.1	29	41.1	2	6	90	0.00	30.029 
14:45	76.0	76.0	77.1	27	39.6	3	9	90	0.00	30.027 
14:50	76.1	76.1	77.1	27	39.7	2	6	90	0.00	30.027 
14:55	76.1	76.1	77.1	27	39.7	2	5	112	0.00	30.027 
15:00	76.3	76.3	77.2	28	40.8	2	6	68	0.00	30.025 
15:05	75.8	75.8	77.0	27	39.4	3	6	68	0.00	30.025 
15:10	75.4	75.4	76.8	27	39.1	2	5	90	0.00	30.025 
15:15	75.8	75.8	77.1	28	40.4	3	4	112	0.00	30.024 
15:20	76.3	76.3	77.2	27	39.8	2	6	112	0.00	30.024 
15:25	76.3	76.3	77.2	27	39.8	3	6	68	0.00	30.024 
15:30	76.5	76.5	77.2	26	39.0	3	6	90	0.00	30.018 
15:35	76.7	76.7	77.3	27	40.2	3	6	90	0.00	30.018 
15:40	76.8	76.8	77.3	26	39.3	1	5	112	0.00	30.018 
15:45	77.2	77.2	77.6	27	40.6	2	7	112	0.00	30.014 
15:50	77.6	77.6	77.8	28	41.9	3	7	112	0.00	30.014 
15:55	77.7	77.7	77.8	27	41.0	2	5	112	0.00	30.014 
16:00	77.7	77.7	77.8	27	41.0	1	3	112	0.00	30.007 
16:05	77.4	77.4	77.7	28	41.7	2	5	90	0.00	30.007 
16:10	77.2	77.2	77.6	27	40.6	2	6	90	0.00	30.007 
16:15	77.4	77.4	77.6	26	39.8	2	7	112	0.00	30.006 
16:20	77.6	77.6	77.7	27	41.0	2	7	68	0.00	30.006 
16:25	77.0	77.0	77.5	27	40.4	2	6	112	0.00	30.006 
16:30	76.8	76.8	77.4	27	40.3	3	8	90	0.00	30.003 
16:35	76.3	76.3	77.2	27	39.8	1	4	90	0.00	30.003 
16:40	76.0	76.0	77.1	28	40.5	1	4	90	0.00	30.003 
16:45	75.6	75.6	77.1	30	42.0	1	5	112	0.00	30.002 
16:50	76.3	76.3	77.3	29	41.7	2	5	68	0.00	30.002 
16:55	77.0	77.0	77.6	29	42.3	0	2	90	0.00	30.002 
17:00	77.6	77.6	77.7	27	41.0	1	4	90	0.00	29.996 
17:05	77.7	77.7	77.8	28	42.0	3	10	90	0.00	29.996 
17:10	77.2	77.2	77.6	27	40.6	3	8	90	0.00	29.996 
17:15	77.0	77.0	77.5	27	40.4	2	5	68	0.00	29.997 
17:20	76.8	76.8	77.4	27	40.3	2	6	90	0.00	29.997 
17:25	76.3	76.3	77.3	29	41.7	0	2	112	0.00	29.997 
17:30	75.8	75.8	77.1	28	40.4	0	5	90	0.00	30.001 
17:35	75.4	75.4	76.9	28	40.0	1	3	112	0.00	30.001 
17:40	75.3	75.3	77.0	29	40.8	0	3	112	0.00	30.001 
17:45	75.3	75.3	77.0	29	40.8	0	3	112	0.00	29.999 
17:50	75.6	75.6	77.0	28	40.2	0	2	112	0.00	29.999 
17:55	76.0	76.0	77.2	29	41.4	1	3	112	0.00	29.999 
18:00	76.3	76.3	77.2	27	39.8	2	5	112	0.00	29.994 
18:05	76.0	76.0	77.1	28	40.5	1	4	90	0.00	29.994 
18:10	75.4	75.4	76.9	28	40.0	1	3	90	0.00	29.994 
18:15	75.3	75.3	77.0	30	41.7	0	1	90	0.00	29.997 
18:20	75.1	75.1	77.0	30	41.5	1	4	90	0.00	29.997 
18:25	75.3	75.3	77.0	30	41.7	2	5	90	0.00	29.997 
18:30	75.1	75.1	76.9	29	40.7	2	5	90	0.00	29.994 
18:35	75.1	75.1	76.8	28	39.8	1	3	90	0.00	29.994 
18:40	75.1	75.1	77.0	30	41.5	0	3	90	0.00	29.994 
18:45	74.7	74.7	74.7	30	41.2	0	3	90	0.00	29.995 
18:50	74.6	74.6	74.6	31	42.0	0	2	90	0.00	29.995 
18:55	74.6	74.6	74.6	30	41.1	1	3	90	0.00	29.995 
19:00	74.6	74.6	74.6	31	42.0	0	2	90	0.00	29.994 
19:05	74.4	74.4	74.4	32	42.6	0	2	90	0.00	29.994 
19:10	74.4	74.4	74.4	31	41.8	1	3	90	0.00	29.994 
19:15	74.4	74.4	74.4	29	40.1	1	5	90	0.00	29.992 
19:20	74.4	74.4	74.4	29	40.1	1	3	90	0.00	29.992 
19:25	74.6	74.6	74.6	30	41.1	0	2	90	0.00	29.992 
19:30	74.6	74.6	74.6	29	40.2	0	1	90	0.00	29.992 
19:35	74.4	74.4	74.4	28	39.2	0	1	90	0.00	29.992 
19:40	74.4	74.4	74.4	31	41.8	0	1	90	0.00	29.992 
19:45	74.6	74.6	74.6	29	40.2	0	1	90	0.00	29.995 
19:50	74.6	74.6	74.6	31	42.0	0	1	90	0.00	29.995 
19:55	74.4	74.4	74.4	29	40.1	0	2	90	0.00	29.995 
20:00	74.4	74.4	74.4	30	40.9	0	0	---	0.00	29.998 
20:05	74.4	74.4	74.4	30	40.9	0	1	90	0.00	29.998 
20:10	74.4	74.4	74.4	31	41.8	0	0	---	0.00	29.998 
20:15	74.2	74.2	74.2	31	41.6	0	0	---	0.00	29.993 
20:20	73.9	73.9	73.9	31	41.3	1	2	90	0.00	29.993 
20:25	73.7	73.7	73.7	31	41.2	1	2	90	0.00	29.993 
20:30	73.5	73.5	73.5	32	41.8	0	2	90	0.00	29.996 
20:35	73.2	73.2	73.2	33	42.4	0	2	90	0.00	29.996 
20:40	72.8	72.8	72.8	33	42.0	0	0	---	0.00	29.996 
20:45	72.7	72.7	72.7	34	42.7	0	1	90	0.00	30.001 
20:50	72.3	72.3	72.3	35	43.1	0	0	---	0.00	30.001 
20:55	71.8	71.8	71.8	35	42.7	0	0	---	0.00	30.001 
21:00	71.3	71.3	71.3	36	43.0	0	0	---	0.00	30.001 
21:05	70.8	70.8	70.8	37	43.2	0	0	---	0.00	30.001 
21:10	70.3	70.3	70.3	38	43.5	0	0	---	0.00	30.001 
21:15	69.8	69.8	69.8	40	44.4	0	0	---	0.00	30.004 
21:20	69.1	69.1	69.1	41	44.4	0	0	---	0.00	30.004 
21:25	68.6	68.6	68.6	43	45.2	0	0	---	0.00	30.004 
21:30	68.1	68.1	68.1	43	44.7	0	0	---	0.00	30.007 
21:35	67.4	67.4	67.4	44	44.7	0	0	---	0.00	30.007 
21:40	66.9	66.9	66.9	46	45.4	0	0	---	0.00	30.007 
21:45	66.4	66.4	66.4	46	45.0	0	0	---	0.00	30.010 
21:50	66.0	66.0	66.0	47	45.2	0	0	---	0.00	30.010 
21:55	65.5	65.5	65.5	49	45.8	0	0	---	0.00	30.010 
22:00	65.0	65.0	65.0	50	45.9	0	0	---	0.00	30.015 
22:05	64.5	64.5	64.5	52	46.5	0	0	---	0.00	30.015 
22:10	64.2	64.2	64.2	53	46.7	0	0	---	0.00	30.015 
22:15	63.7	63.7	63.7	54	46.7	0	0	---	0.00	30.023 
22:20	63.4	63.4	63.4	55	46.9	0	0	---	0.00	30.023 
22:25	63.1	63.1	63.1	55	46.7	0	0	---	0.00	30.023 
22:30	62.7	62.7	62.7	57	47.2	0	0	---	0.00	30.025 
22:35	62.4	62.4	62.4	57	47.0	0	0	---	0.00	30.025 
22:40	62.1	62.1	62.1	58	47.1	0	0	---	0.00	30.025 
22:45	61.8	61.8	61.8	58	46.9	0	0	---	0.00	30.027 
22:50	61.5	61.5	61.5	60	47.5	0	0	---	0.00	30.027 
22:55	61.2	61.2	61.2	60	47.2	0	0	---	0.00	30.027 
23:00	61.0	61.0	61.0	60	47.0	0	0	---	0.00	30.028 
23:05	61.0	61.0	61.0	61	47.5	0	0	---	0.00	30.028 
23:10	61.0	61.0	61.0	61	47.5	0	0	---	0.00	30.028 
23:15	61.0	61.0	61.0	61	47.5	0	0	---	0.00	30.028 
23:20	61.0	61.0	61.0	61	47.5	0	0	---	0.00	30.028 
23:25	61.0	61.0	61.0	62	47.9	0	0	---	0.00	30.028 
23:30	61.0	61.0	61.0	62	47.9	0	0	---	0.00	30.030 
23:35	61.0	61.0	61.0	62	47.9	0	0	---	0.00	30.030 
23:40	61.0	61.0	61.0	62	47.9	0	0	---	0.00	30.030 
23:45	61.0	61.0	61.0	62	47.9	0	0	---	0.00	30.029 
23:50	61.0	61.0	61.0	62	47.9	0	0	---	0.00	30.029 
23:55	61.0	61.0	61.0	62	47.9	0	0	---	0.00	30.029 

CoCoRaHS
IN-AL-39
A2 Web Hosting
Creative Commons License
GoDaddy
search engine by freefind advanced

loaded 2018-11-17 12:03:58 • last modified 2010-11-18 10:43:29
Privacy PolicyDisclaimer
• wx.awcolley.com is powered by PmWiki v.2002016 •
• all content (unless otherwise noted) © 2018 A W Colley